sensor_id;sensor_type;location;lat;lon;timestamp;pressure;altitude;pressure_sealevel;temperature;humidity
77321;BME280;66382;52.252;8.780;2024-02-21T00:00:08;101171.53;;;9.06;72.14
77321;BME280;66382;52.252;8.780;2024-02-21T00:02:34;101161.50;;;9.08;72.25
77321;BME280;66382;52.252;8.780;2024-02-21T00:05:00;101162.50;;;9.07;72.44
77321;BME280;66382;52.252;8.780;2024-02-21T00:07:26;101159.00;;;9.07;72.62
77321;BME280;66382;52.252;8.780;2024-02-21T00:09:51;101145.78;;;9.05;72.33
77321;BME280;66382;52.252;8.780;2024-02-21T00:12:17;101146.63;;;9.06;72.26
77321;BME280;66382;52.252;8.780;2024-02-21T00:14:42;101154.81;;;9.04;72.04
77321;BME280;66382;52.252;8.780;2024-02-21T00:17:07;101155.63;;;9.04;72.06
77321;BME280;66382;52.252;8.780;2024-02-21T00:19:33;101149.59;;;9.02;72.26
77321;BME280;66382;52.252;8.780;2024-02-21T00:22:00;101139.75;;;9.03;72.03
77321;BME280;66382;52.252;8.780;2024-02-21T00:24:25;101136.06;;;9.04;72.08
77321;BME280;66382;52.252;8.780;2024-02-21T00:26:51;101135.25;;;9.03;72.24
77321;BME280;66382;52.252;8.780;2024-02-21T00:29:16;101128.22;;;9.02;72.12
77321;BME280;66382;52.252;8.780;2024-02-21T00:31:41;101125.53;;;9.02;72.32
77321;BME280;66382;52.252;8.780;2024-02-21T00:34:07;101119.19;;;9.03;72.22
77321;BME280;66382;52.252;8.780;2024-02-21T00:36:32;101110.34;;;9.03;72.20
77321;BME280;66382;52.252;8.780;2024-02-21T00:38:59;101110.34;;;9.03;72.19
77321;BME280;66382;52.252;8.780;2024-02-21T00:41:24;101115.34;;;9.06;72.19
77321;BME280;66382;52.252;8.780;2024-02-21T00:43:50;101115.84;;;9.10;72.21
77321;BME280;66382;52.252;8.780;2024-02-21T00:46:15;101106.84;;;9.11;72.17
77321;BME280;66382;52.252;8.780;2024-02-21T00:48:41;101109.69;;;9.09;72.76
77321;BME280;66382;52.252;8.780;2024-02-21T00:51:06;101113.19;;;9.10;72.05
77321;BME280;66382;52.252;8.780;2024-02-21T00:53:31;101102.47;;;9.10;71.97
77321;BME280;66382;52.252;8.780;2024-02-21T00:55:58;101098.81;;;9.11;72.13
77321;BME280;66382;52.252;8.780;2024-02-21T00:58:24;101098.81;;;9.11;72.38
77321;BME280;66382;52.252;8.780;2024-02-21T01:00:49;101104.31;;;9.09;72.31
77321;BME280;66382;52.252;8.780;2024-02-21T01:03:14;101096.50;;;9.08;72.29
77321;BME280;66382;52.252;8.780;2024-02-21T01:05:40;101083.13;;;9.08;72.33
77321;BME280;66382;52.252;8.780;2024-02-21T01:08:05;101089.28;;;9.08;72.43
77321;BME280;66382;52.252;8.780;2024-02-21T01:10:31;101086.63;;;9.08;71.87
77321;BME280;66382;52.252;8.780;2024-02-21T01:12:58;101082.78;;;9.11;72.03
77321;BME280;66382;52.252;8.780;2024-02-21T01:15:23;101089.63;;;9.13;72.26
77321;BME280;66382;52.252;8.780;2024-02-21T01:17:49;101093.97;;;9.14;72.01
77321;BME280;66382;52.252;8.780;2024-02-21T01:20:14;101078.09;;;9.13;72.22
77321;BME280;66382;52.252;8.780;2024-02-21T01:22:40;101091.63;;;9.11;72.38
77321;BME280;66382;52.252;8.780;2024-02-21T01:25:06;101101.50;;;9.11;72.00
77321;BME280;66382;52.252;8.780;2024-02-21T01:27:32;101093.28;;;9.12;72.10
77321;BME280;66382;52.252;8.780;2024-02-21T01:29:59;101086.78;;;9.15;72.25
77321;BME280;66382;52.252;8.780;2024-02-21T01:32:24;101078.75;;;9.15;72.17
77321;BME280;66382;52.252;8.780;2024-02-21T01:34:50;101082.28;;;9.15;72.22
77321;BME280;66382;52.252;8.780;2024-02-21T01:37:15;101067.91;;;9.16;71.97
77321;BME280;66382;52.252;8.780;2024-02-21T01:39:40;101073.94;;;9.18;71.90
77321;BME280;66382;52.252;8.780;2024-02-21T01:42:06;101069.59;;;9.17;72.07
77321;BME280;66382;52.252;8.780;2024-02-21T01:44:31;101053.69;;;9.16;72.08
77321;BME280;66382;52.252;8.780;2024-02-21T01:46:58;101049.84;;;9.18;72.01
77321;BME280;66382;52.252;8.780;2024-02-21T01:49:24;101052.38;;;9.20;72.11
77321;BME280;66382;52.252;8.780;2024-02-21T01:51:50;101052.84;;;9.23;71.98
77321;BME280;66382;52.252;8.780;2024-02-21T01:54:18;101045.84;;;9.22;71.81
77321;BME280;66382;52.252;8.780;2024-02-21T01:56:44;101041.47;;;9.21;71.77
77321;BME280;66382;52.252;8.780;2024-02-21T01:59:11;101039.97;;;9.19;72.10
77321;BME280;66382;52.252;8.780;2024-02-21T02:01:39;101036.81;;;9.15;71.79
77321;BME280;66382;52.252;8.780;2024-02-21T02:04:06;101037.63;;;9.16;71.69
77321;BME280;66382;52.252;8.780;2024-02-21T02:06:32;101040.81;;;9.19;72.57
77321;BME280;66382;52.252;8.780;2024-02-21T02:08:57;101030.28;;;9.18;71.87
77321;BME280;66382;52.252;8.780;2024-02-21T02:11:23;101033.31;;;9.23;71.72
77321;BME280;66382;52.252;8.780;2024-02-21T02:13:48;101016.41;;;9.22;72.05
77321;BME280;66382;52.252;8.780;2024-02-21T02:16:14;101019.94;;;9.23;71.87
77321;BME280;66382;52.252;8.780;2024-02-21T02:18:39;101018.91;;;9.24;71.85
77321;BME280;66382;52.252;8.780;2024-02-21T02:21:10;101012.06;;;9.21;71.51
77321;BME280;66382;52.252;8.780;2024-02-21T02:23:41;101012.88;;;9.22;71.88
77321;BME280;66382;52.252;8.780;2024-02-21T02:26:07;101007.53;;;9.22;71.77
77321;BME280;66382;52.252;8.780;2024-02-21T02:28:33;100996.00;;;9.21;71.81
77321;BME280;66382;52.252;8.780;2024-02-21T02:30:58;101003.03;;;9.22;71.61
77321;BME280;66382;52.252;8.780;2024-02-21T02:33:23;100997.03;;;9.20;72.00
77321;BME280;66382;52.252;8.780;2024-02-21T02:35:49;100981.13;;;9.19;71.80
77321;BME280;66382;52.252;8.780;2024-02-21T02:38:14;100977.78;;;9.17;71.95
77321;BME280;66382;52.252;8.780;2024-02-21T02:40:41;100983.13;;;9.17;71.85
77321;BME280;66382;52.252;8.780;2024-02-21T02:43:07;100982.13;;;9.18;71.78
77321;BME280;66382;52.252;8.780;2024-02-21T02:45:32;100961.72;;;9.17;71.82
77321;BME280;66382;52.252;8.780;2024-02-21T02:47:58;100967.06;;;9.17;72.18
77321;BME280;66382;52.252;8.780;2024-02-21T02:50:24;100956.72;;;9.14;71.88
77321;BME280;66382;52.252;8.780;2024-02-21T02:52:50;100953.03;;;9.15;71.68
77321;BME280;66382;52.252;8.780;2024-02-21T02:55:15;100945.19;;;9.13;71.77
77321;BME280;66382;52.252;8.780;2024-02-21T02:57:42;100940.34;;;9.09;72.06
77321;BME280;66382;52.252;8.780;2024-02-21T03:00:09;100938.50;;;9.09;71.90
77321;BME280;66382;52.252;8.780;2024-02-21T03:02:35;100932.31;;;9.09;71.58
77321;BME280;66382;52.252;8.780;2024-02-21T03:05:00;100912.09;;;9.06;72.09
77321;BME280;66382;52.252;8.780;2024-02-21T03:07:26;100923.63;;;9.07;71.85
77321;BME280;66382;52.252;8.780;2024-02-21T03:09:51;100919.28;;;9.06;71.93
77321;BME280;66382;52.252;8.780;2024-02-21T03:12:17;100925.47;;;9.06;71.88
77321;BME280;66382;52.252;8.780;2024-02-21T03:14:44;100921.97;;;9.06;72.03
77321;BME280;66382;52.252;8.780;2024-02-21T03:17:09;100923.47;;;9.08;71.99
77321;BME280;66382;52.252;8.780;2024-02-21T03:19:34;100919.97;;;9.08;72.02
77321;BME280;66382;52.252;8.780;2024-02-21T03:22:00;100916.09;;;9.10;71.99
77321;BME280;66382;52.252;8.780;2024-02-21T03:24:25;100911.75;;;9.09;72.08
77321;BME280;66382;52.252;8.780;2024-02-21T03:26:51;100918.28;;;9.07;71.89
77321;BME280;66382;52.252;8.780;2024-02-21T03:29:16;100908.41;;;9.07;72.22
77321;BME280;66382;52.252;8.780;2024-02-21T03:31:43;100910.09;;;9.08;71.85
77321;BME280;66382;52.252;8.780;2024-02-21T03:34:10;100921.28;;;9.12;72.19
77321;BME280;66382;52.252;8.780;2024-02-21T03:36:35;100919.28;;;9.14;71.81
77321;BME280;66382;52.252;8.780;2024-02-21T03:39:01;100925.44;;;9.14;71.72
77321;BME280;66382;52.252;8.780;2024-02-21T03:41:26;100927.13;;;9.15;71.75
77321;BME280;66382;52.252;8.780;2024-02-21T03:43:52;100931.00;;;9.13;71.83
77321;BME280;66382;52.252;8.780;2024-02-21T03:46:17;100934.84;;;9.10;71.59
77321;BME280;66382;52.252;8.780;2024-02-21T03:48:44;100929.50;;;9.10;72.05
77321;BME280;66382;52.252;8.780;2024-02-21T03:51:09;100942.66;;;9.12;71.80
77321;BME280;66382;52.252;8.780;2024-02-21T03:53:35;100947.88;;;9.13;71.91
77321;BME280;66382;52.252;8.780;2024-02-21T03:56:01;100950.34;;;9.15;72.08
77321;BME280;66382;52.252;8.780;2024-02-21T03:58:26;100955.19;;;9.19;72.06
77321;BME280;66382;52.252;8.780;2024-02-21T04:00:52;100949.69;;;9.21;71.89
77321;BME280;66382;52.252;8.780;2024-02-21T04:03:17;100943.50;;;9.20;71.88
77321;BME280;66382;52.252;8.780;2024-02-21T04:05:44;100946.34;;;9.19;71.64
77321;BME280;66382;52.252;8.780;2024-02-21T04:08:09;100945.38;;;9.20;71.89
77321;BME280;66382;52.252;8.780;2024-02-21T04:10:35;100935.50;;;9.20;71.78
77321;BME280;66382;52.252;8.780;2024-02-21T04:13:00;100940.66;;;9.22;72.02
77321;BME280;66382;52.252;8.780;2024-02-21T04:15:26;100939.66;;;9.23;71.78
77321;BME280;66382;52.252;8.780;2024-02-21T04:17:51;100938.66;;;9.24;71.99
77321;BME280;66382;52.252;8.780;2024-02-21T04:20:17;100939.47;;;9.24;71.71
77321;BME280;66382;52.252;8.780;2024-02-21T04:22:44;100944.66;;;9.26;71.41
77321;BME280;66382;52.252;8.780;2024-02-21T04:25:09;100935.00;;;9.25;71.30
77321;BME280;66382;52.252;8.780;2024-02-21T04:27:35;100933.66;;;9.21;71.78
77321;BME280;66382;52.252;8.780;2024-02-21T04:30:00;100931.47;;;9.16;71.59
77321;BME280;66382;52.252;8.780;2024-02-21T04:32:25;100936.97;;;9.15;72.07
77321;BME280;66382;52.252;8.780;2024-02-21T04:34:51;100933.47;;;9.14;71.99
77321;BME280;66382;52.252;8.780;2024-02-21T04:37:16;100939.66;;;9.15;71.75
77321;BME280;66382;52.252;8.780;2024-02-21T04:39:43;100940.66;;;9.14;71.73
77321;BME280;66382;52.252;8.780;2024-02-21T04:42:08;100930.31;;;9.11;71.99
77321;BME280;66382;52.252;8.780;2024-02-21T04:44:34;100926.81;;;9.10;71.94
77321;BME280;66382;52.252;8.780;2024-02-21T04:46:59;100915.94;;;9.12;72.15
77321;BME280;66382;52.252;8.780;2024-02-21T04:49:25;100920.78;;;9.08;71.67
77321;BME280;66382;52.252;8.780;2024-02-21T04:51:50;100915.59;;;9.07;71.67
77321;BME280;66382;52.252;8.780;2024-02-21T04:54:15;100912.25;;;9.04;72.16
77321;BME280;66382;52.252;8.780;2024-02-21T04:56:42;100895.88;;;8.99;72.16
77321;BME280;66382;52.252;8.780;2024-02-21T04:59:08;100891.69;;;8.97;71.96
77321;BME280;66382;52.252;8.780;2024-02-21T05:01:33;100896.56;;;8.93;72.40
77321;BME280;66382;52.252;8.780;2024-02-21T05:03:58;100895.88;;;8.91;72.18
77321;BME280;66382;52.252;8.780;2024-02-21T05:06:24;100908.44;;;8.91;72.35
77321;BME280;66382;52.252;8.780;2024-02-21T05:08:49;100905.75;;;8.91;72.71
77321;BME280;66382;52.252;8.780;2024-02-21T05:11:15;100913.59;;;8.92;72.66
77321;BME280;66382;52.252;8.780;2024-02-21T05:13:42;100906.44;;;8.93;72.26
77321;BME280;66382;52.252;8.780;2024-02-21T05:16:07;100917.97;;;8.93;72.75
77321;BME280;66382;52.252;8.780;2024-02-21T05:18:32;100910.59;;;8.95;72.68
77321;BME280;66382;52.252;8.780;2024-02-21T05:20:58;100915.59;;;8.98;72.73
77321;BME280;66382;52.252;8.780;2024-02-21T05:23:24;100911.75;;;9.01;72.37
77321;BME280;66382;52.252;8.780;2024-02-21T05:25:50;100910.06;;;9.00;72.67
77321;BME280;66382;52.252;8.780;2024-02-21T05:28:16;100908.56;;;8.97;72.82
77321;BME280;66382;52.252;8.780;2024-02-21T05:30:43;100909.44;;;8.98;72.34
77321;BME280;66382;52.252;8.780;2024-02-21T05:33:08;100901.56;;;8.96;72.36
77321;BME280;66382;52.252;8.780;2024-02-21T05:35:35;100891.88;;;8.95;72.54
77321;BME280;66382;52.252;8.780;2024-02-21T05:38:00;100886.69;;;8.94;72.42
77321;BME280;66382;52.252;8.780;2024-02-21T05:40:26;100894.22;;;8.90;72.38
77321;BME280;66382;52.252;8.780;2024-02-21T05:42:51;100884.19;;;8.84;72.48
77321;BME280;66382;52.252;8.780;2024-02-21T05:45:17;100893.22;;;8.83;72.40
77321;BME280;66382;52.252;8.780;2024-02-21T05:47:43;100886.88;;;8.84;73.09
77321;BME280;66382;52.252;8.780;2024-02-21T05:50:09;100878.50;;;8.87;72.75
77321;BME280;66382;52.252;8.780;2024-02-21T05:52:35;100877.81;;;8.85;72.71
77321;BME280;66382;52.252;8.780;2024-02-21T05:55:00;100874.31;;;8.85;72.66
77321;BME280;66382;52.252;8.780;2024-02-21T05:57:26;100873.97;;;8.88;72.57
77321;BME280;66382;52.252;8.780;2024-02-21T05:59:51;100870.47;;;8.87;72.39
77321;BME280;66382;52.252;8.780;2024-02-21T06:02:17;100879.16;;;8.89;72.91
77321;BME280;66382;52.252;8.780;2024-02-21T06:04:44;100861.47;;;8.88;72.75
77321;BME280;66382;52.252;8.780;2024-02-21T06:07:09;100869.66;;;8.87;72.95
77321;BME280;66382;52.252;8.780;2024-02-21T06:09:34;100868.00;;;8.86;73.01
77321;BME280;66382;52.252;8.780;2024-02-21T06:12:00;100867.13;;;8.85;72.58
77321;BME280;66382;52.252;8.780;2024-02-21T06:14:26;100863.16;;;8.81;73.01
77321;BME280;66382;52.252;8.780;2024-02-21T06:16:52;100877.50;;;8.80;72.64
77321;BME280;66382;52.252;8.780;2024-02-21T06:19:17;100871.31;;;8.79;73.30
77321;BME280;66382;52.252;8.780;2024-02-21T06:21:44;100865.97;;;8.79;72.55
77321;BME280;66382;52.252;8.780;2024-02-21T06:24:09;100869.16;;;8.83;73.01
77321;BME280;66382;52.252;8.780;2024-02-21T06:26:35;100867.31;;;8.83;73.10
77321;BME280;66382;52.252;8.780;2024-02-21T06:29:00;100870.81;;;8.84;72.64
77321;BME280;66382;52.252;8.780;2024-02-21T06:31:26;100871.84;;;8.83;72.72
77321;BME280;66382;52.252;8.780;2024-02-21T06:33:52;100873.84;;;8.81;72.71
77321;BME280;66382;52.252;8.780;2024-02-21T06:36:17;100869.16;;;8.83;73.00
77321;BME280;66382;52.252;8.780;2024-02-21T06:38:44;100867.31;;;8.83;72.97
77321;BME280;66382;52.252;8.780;2024-02-21T06:41:15;100861.16;;;8.83;72.61
77321;BME280;66382;52.252;8.780;2024-02-21T06:43:40;100878.69;;;8.86;73.08
77321;BME280;66382;52.252;8.780;2024-02-21T06:46:06;100871.66;;;8.85;73.14
77321;BME280;66382;52.252;8.780;2024-02-21T06:48:31;100859.31;;;8.83;73.02
77321;BME280;66382;52.252;8.780;2024-02-21T06:50:56;100841.56;;;8.82;72.84
77321;BME280;66382;52.252;8.780;2024-02-21T06:53:22;100845.75;;;8.85;73.31
77321;BME280;66382;52.252;8.780;2024-02-21T06:55:49;100840.09;;;8.88;72.88
77321;BME280;66382;52.252;8.780;2024-02-21T06:58:14;100840.09;;;8.88;72.93
77321;BME280;66382;52.252;8.780;2024-02-21T07:00:40;100835.22;;;8.92;72.73
77321;BME280;66382;52.252;8.780;2024-02-21T07:03:05;100836.91;;;8.93;73.05
77321;BME280;66382;52.252;8.780;2024-02-21T07:05:31;100826.22;;;8.93;72.51
77321;BME280;66382;52.252;8.780;2024-02-21T07:07:56;100824.38;;;8.93;73.00
77321;BME280;66382;52.252;8.780;2024-02-21T07:10:22;100823.69;;;8.91;72.89
77321;BME280;66382;52.252;8.780;2024-02-21T07:12:48;100828.22;;;8.91;72.79
77321;BME280;66382;52.252;8.780;2024-02-21T07:15:14;100826.53;;;8.90;72.69
77321;BME280;66382;52.252;8.780;2024-02-21T07:17:39;100824.53;;;8.92;72.93
77321;BME280;66382;52.252;8.780;2024-02-21T07:20:06;100826.03;;;8.94;72.49
77321;BME280;66382;52.252;8.780;2024-02-21T07:22:31;100834.72;;;8.96;72.41
77321;BME280;66382;52.252;8.780;2024-02-21T07:24:57;100837.22;;;8.98;72.45
77321;BME280;66382;52.252;8.780;2024-02-21T07:27:22;100836.22;;;8.99;72.17
77321;BME280;66382;52.252;8.780;2024-02-21T07:29:49;100841.22;;;9.02;72.50
77321;BME280;66382;52.252;8.780;2024-02-21T07:32:14;100839.56;;;9.01;72.33
77321;BME280;66382;52.252;8.780;2024-02-21T07:34:40;100846.56;;;9.02;72.52
77321;BME280;66382;52.252;8.780;2024-02-21T07:37:05;100848.56;;;9.00;72.22
77321;BME280;66382;52.252;8.780;2024-02-21T07:39:31;100845.72;;;9.01;72.42
77321;BME280;66382;52.252;8.780;2024-02-21T07:41:56;100842.91;;;9.03;72.66
77321;BME280;66382;52.252;8.780;2024-02-21T07:44:21;100836.38;;;9.06;72.29
77321;BME280;66382;52.252;8.780;2024-02-21T07:46:48;100845.22;;;9.06;72.52
77321;BME280;66382;52.252;8.780;2024-02-21T07:49:14;100838.88;;;9.07;72.33
77321;BME280;66382;52.252;8.780;2024-02-21T07:51:39;100843.91;;;9.10;71.94
77321;BME280;66382;52.252;8.780;2024-02-21T07:54:04;100841.38;;;9.09;72.31
77321;BME280;66382;52.252;8.780;2024-02-21T07:56:30;100843.22;;;9.08;71.98
77321;BME280;66382;52.252;8.780;2024-02-21T07:58:55;100832.34;;;9.10;71.98
77321;BME280;66382;52.252;8.780;2024-02-21T08:01:21;100829.50;;;9.11;71.92
77321;BME280;66382;52.252;8.780;2024-02-21T08:03:48;100830.19;;;9.13;72.08
77321;BME280;66382;52.252;8.780;2024-02-21T08:06:13;100835.53;;;9.13;71.54
77321;BME280;66382;52.252;8.780;2024-02-21T08:08:39;100822.81;;;9.15;71.90
77321;BME280;66382;52.252;8.780;2024-02-21T08:11:05;100817.94;;;9.19;71.85
77321;BME280;66382;52.252;8.780;2024-02-21T08:13:30;100823.59;;;9.24;72.06
77321;BME280;66382;52.252;8.780;2024-02-21T08:15:55;100813.59;;;9.26;72.01
77321;BME280;66382;52.252;8.780;2024-02-21T08:18:21;100811.56;;;9.28;71.78
77321;BME280;66382;52.252;8.780;2024-02-21T08:20:48;100814.72;;;9.32;71.35
77321;BME280;66382;52.252;8.780;2024-02-21T08:23:15;100804.88;;;9.32;71.61
77321;BME280;66382;52.252;8.780;2024-02-21T08:25:41;100806.53;;;9.33;71.67
77321;BME280;66382;52.252;8.780;2024-02-21T08:28:07;100790.47;;;9.33;71.35
77321;BME280;66382;52.252;8.780;2024-02-21T08:30:32;100788.47;;;9.35;71.55
77321;BME280;66382;52.252;8.780;2024-02-21T08:32:57;100791.97;;;9.36;71.29
77321;BME280;66382;52.252;8.780;2024-02-21T08:35:23;100791.16;;;9.35;71.01
77321;BME280;66382;52.252;8.780;2024-02-21T08:37:50;100788.47;;;9.35;71.50
77321;BME280;66382;52.252;8.780;2024-02-21T08:40:16;100781.75;;;9.39;71.25
77321;BME280;66382;52.252;8.780;2024-02-21T08:42:41;100784.09;;;9.42;71.10
77321;BME280;66382;52.252;8.780;2024-02-21T08:45:08;100783.06;;;9.43;71.42
77321;BME280;66382;52.252;8.780;2024-02-21T08:47:33;100773.03;;;9.45;70.99
77321;BME280;66382;52.252;8.780;2024-02-21T08:49:59;100769.00;;;9.50;71.12
77321;BME280;66382;52.252;8.780;2024-02-21T08:52:24;100770.31;;;9.54;71.30
77321;BME280;66382;52.252;8.780;2024-02-21T08:54:51;100768.13;;;9.57;71.00
77321;BME280;66382;52.252;8.780;2024-02-21T08:57:16;100768.75;;;9.59;70.88
77321;BME280;66382;52.252;8.780;2024-02-21T08:59:42;100768.25;;;9.64;71.29
77321;BME280;66382;52.252;8.780;2024-02-21T09:02:07;100768.09;;;9.65;70.79
77321;BME280;66382;52.252;8.780;2024-02-21T09:04:33;100762.72;;;9.65;70.70
77321;BME280;66382;52.252;8.780;2024-02-21T09:06:58;100760.88;;;9.66;70.94
77321;BME280;66382;52.252;8.780;2024-02-21T09:09:24;100760.34;;;9.71;70.34
77321;BME280;66382;52.252;8.780;2024-02-21T09:11:51;100762.50;;;9.75;71.18
77321;BME280;66382;52.252;8.780;2024-02-21T09:14:16;100755.13;;;9.77;70.81
77321;BME280;66382;52.252;8.780;2024-02-21T09:16:42;100752.25;;;9.79;70.44
77321;BME280;66382;52.252;8.780;2024-02-21T09:19:07;100755.78;;;9.79;70.73
77321;BME280;66382;52.252;8.780;2024-02-21T09:21:33;100751.56;;;9.85;70.86
77321;BME280;66382;52.252;8.780;2024-02-21T09:23:58;100758.72;;;9.93;70.49
77321;BME280;66382;52.252;8.780;2024-02-21T09:26:24;100748.66;;;9.95;70.25
77321;BME280;66382;52.252;8.780;2024-02-21T09:28:50;100748.66;;;9.95;70.16
77321;BME280;66382;52.252;8.780;2024-02-21T09:31:16;100758.19;;;9.97;69.86
77321;BME280;66382;52.252;8.780;2024-02-21T09:33:41;100754.97;;;10.02;71.02
77321;BME280;66382;52.252;8.780;2024-02-21T09:36:07;100755.72;;;10.10;70.74
77321;BME280;66382;52.252;8.780;2024-02-21T09:38:32;100753.16;;;10.17;70.76
77321;BME280;66382;52.252;8.780;2024-02-21T09:40:59;100741.44;;;10.18;69.24
77321;BME280;66382;52.252;8.780;2024-02-21T09:43:24;100749.13;;;10.21;70.21
77321;BME280;66382;52.252;8.780;2024-02-21T09:45:54;100740.34;;;10.27;70.17
77321;BME280;66382;52.252;8.780;2024-02-21T09:48:27;100747.06;;;10.31;70.25
77321;BME280;66382;52.252;8.780;2024-02-21T09:50:56;100736.63;;;10.37;69.83
77321;BME280;66382;52.252;8.780;2024-02-21T09:53:24;100728.22;;;10.40;69.13
77321;BME280;66382;52.252;8.780;2024-02-21T09:55:50;100718.59;;;10.45;69.37
77321;BME280;66382;52.252;8.780;2024-02-21T09:58:16;100722.06;;;10.54;69.49
77321;BME280;66382;52.252;8.780;2024-02-21T10:00:41;100712.44;;;10.60;69.62
77321;BME280;66382;52.252;8.780;2024-02-21T10:03:08;100703.69;;;10.66;68.90
77321;BME280;66382;52.252;8.780;2024-02-21T10:05:34;100701.63;;;10.68;68.66
77321;BME280;66382;52.252;8.780;2024-02-21T10:07:59;100702.09;;;10.71;69.34
77321;BME280;66382;52.252;8.780;2024-02-21T10:10:25;100696.25;;;10.83;69.06
77321;BME280;66382;52.252;8.780;2024-02-21T10:12:51;100692.75;;;10.97;69.61
77321;BME280;66382;52.252;8.780;2024-02-21T10:15:20;100690.53;;;11.01;68.93
77321;BME280;66382;52.252;8.780;2024-02-21T10:17:45;100685.16;;;11.01;69.01
77321;BME280;66382;52.252;8.780;2024-02-21T10:20:13;100690.16;;;11.04;69.22
77321;BME280;66382;52.252;8.780;2024-02-21T10:22:38;100681.72;;;11.07;68.89
77321;BME280;66382;52.252;8.780;2024-02-21T10:25:07;100686.09;;;11.08;68.57
77321;BME280;66382;52.252;8.780;2024-02-21T10:27:32;100688.31;;;11.04;68.05
77321;BME280;66382;52.252;8.780;2024-02-21T10:29:58;100670.28;;;10.98;68.54
77321;BME280;66382;52.252;8.780;2024-02-21T10:32:24;100680.75;;;10.93;68.28
77321;BME280;66382;52.252;8.780;2024-02-21T10:34:49;100677.13;;;10.86;67.76
77321;BME280;66382;52.252;8.780;2024-02-21T10:37:16;100674.47;;;10.86;67.22
77321;BME280;66382;52.252;8.780;2024-02-21T10:39:42;100682.28;;;10.87;67.80
77321;BME280;66382;52.252;8.780;2024-02-21T10:42:10;100674.47;;;10.86;67.80
77321;BME280;66382;52.252;8.780;2024-02-21T10:44:37;100674.06;;;10.89;67.47
77321;BME280;66382;52.252;8.780;2024-02-21T10:47:07;100667.50;;;10.91;68.60
77321;BME280;66382;52.252;8.780;2024-02-21T10:49:38;100659.91;;;10.95;68.12
77321;BME280;66382;52.252;8.780;2024-02-21T10:52:07;100660.16;;;11.00;67.81
77321;BME280;66382;52.252;8.780;2024-02-21T10:54:45;100652.59;;;11.04;68.51
77321;BME280;66382;52.252;8.780;2024-02-21T10:57:12;100638.97;;;11.05;67.06
77321;BME280;66382;52.252;8.780;2024-02-21T10:59:39;100632.59;;;11.06;67.88
77321;BME280;66382;52.252;8.780;2024-02-21T11:02:05;100631.13;;;11.04;66.52
77321;BME280;66382;52.252;8.780;2024-02-21T11:04:31;100626.16;;;11.01;67.73
77321;BME280;66382;52.252;8.780;2024-02-21T11:07:00;100623.38;;;10.94;67.13
77321;BME280;66382;52.252;8.780;2024-02-21T11:09:29;100626.72;;;10.96;67.57
77321;BME280;66382;52.252;8.780;2024-02-21T11:11:56;100617.63;;;10.97;67.12
77321;BME280;66382;52.252;8.780;2024-02-21T11:14:22;100612.47;;;10.95;67.38
77321;BME280;66382;52.252;8.780;2024-02-21T11:16:51;100615.16;;;10.95;66.63
77321;BME280;66382;52.252;8.780;2024-02-21T11:19:20;100612.28;;;10.97;66.59
77321;BME280;66382;52.252;8.780;2024-02-21T11:21:45;100601.16;;;11.00;65.89
77321;BME280;66382;52.252;8.780;2024-02-21T11:24:11;100595.22;;;11.05;66.36
77321;BME280;66382;52.252;8.780;2024-02-21T11:26:37;100588.00;;;11.05;66.00
77321;BME280;66382;52.252;8.780;2024-02-21T11:29:04;100583.22;;;11.01;66.78
77321;BME280;66382;52.252;8.780;2024-02-21T11:31:38;100580.06;;;10.97;66.94
77321;BME280;66382;52.252;8.780;2024-02-21T11:34:04;100562.34;;;10.96;65.38
77321;BME280;66382;52.252;8.780;2024-02-21T11:36:29;100561.94;;;10.99;65.53
77321;BME280;66382;52.252;8.780;2024-02-21T11:39:03;100558.06;;;11.02;67.33
77321;BME280;66382;52.252;8.780;2024-02-21T11:41:29;100547.75;;;11.05;66.20
77321;BME280;66382;52.252;8.780;2024-02-21T11:43:54;100553.41;;;11.10;65.22
77321;BME280;66382;52.252;8.780;2024-02-21T11:46:21;100540.63;;;11.12;66.86
77321;BME280;66382;52.252;8.780;2024-02-21T11:48:46;100529.53;;;11.15;66.37
77321;BME280;66382;52.252;8.780;2024-02-21T11:51:21;100525.81;;;11.16;67.15
77321;BME280;66382;52.252;8.780;2024-02-21T11:53:46;100527.84;;;11.14;65.04
77321;BME280;66382;52.252;8.780;2024-02-21T11:56:13;100520.38;;;11.10;66.70
77321;BME280;66382;52.252;8.780;2024-02-21T11:58:39;100515.00;;;11.10;65.59
77321;BME280;66382;52.252;8.780;2024-02-21T12:01:04;100518.47;;;11.04;66.75
77321;BME280;66382;52.252;8.780;2024-02-21T12:03:31;100513.28;;;11.02;67.03
77321;BME280;66382;52.252;8.780;2024-02-21T12:05:57;100509.84;;;11.08;67.81
77321;BME280;66382;52.252;8.780;2024-02-21T12:08:23;100498.31;;;11.14;66.20
77321;BME280;66382;52.252;8.780;2024-02-21T12:10:48;100489.13;;;11.24;66.33
77321;BME280;66382;52.252;8.780;2024-02-21T12:13:14;100502.63;;;11.30;66.36
77321;BME280;66382;52.252;8.780;2024-02-21T12:15:39;100499.94;;;11.30;65.66
77321;BME280;66382;52.252;8.780;2024-02-21T12:18:05;100495.97;;;11.26;64.77
77321;BME280;66382;52.252;8.780;2024-02-21T12:20:31;100493.66;;;11.23;65.57
77321;BME280;66382;52.252;8.780;2024-02-21T12:23:00;100493.22;;;11.19;65.48
77321;BME280;66382;52.252;8.780;2024-02-21T12:25:25;100487.41;;;11.16;66.10
77321;BME280;66382;52.252;8.780;2024-02-21T12:27:50;100493.34;;;11.11;65.71
77321;BME280;66382;52.252;8.780;2024-02-21T12:30:16;100489.19;;;11.09;66.87
77321;BME280;66382;52.252;8.780;2024-02-21T12:32:42;100491.63;;;11.04;65.81
77321;BME280;66382;52.252;8.780;2024-02-21T12:35:08;100474.00;;;10.94;66.32
77321;BME280;66382;52.252;8.780;2024-02-21T12:37:35;100468.63;;;10.94;65.64
77321;BME280;66382;52.252;8.780;2024-02-21T12:40:00;100463.84;;;10.90;66.63
77321;BME280;66382;52.252;8.780;2024-02-21T12:42:26;100460.91;;;10.85;67.38
77321;BME280;66382;52.252;8.780;2024-02-21T12:44:52;100455.28;;;10.80;67.04
77321;BME280;66382;52.252;8.780;2024-02-21T12:47:17;100451.78;;;10.79;67.07
77321;BME280;66382;52.252;8.780;2024-02-21T12:49:42;100441.22;;;10.77;66.99